createdAt,value
2022-09-10T00:01:40.809Z,96847.47
2022-09-10T00:04:13.289Z,96860.00
2022-09-10T00:06:42.559Z,96849.59
2022-09-10T00:09:12.839Z,96849.94
2022-09-10T00:11:42.493Z,96848.69
2022-09-10T00:14:15.960Z,96846.97
2022-09-10T00:16:46.502Z,96845.78
2022-09-10T00:19:16.089Z,96855.25
2022-09-10T00:21:45.388Z,96844.50
2022-09-10T00:24:14.113Z,96840.03
2022-09-10T00:26:42.609Z,96845.03
2022-09-10T00:29:15.164Z,96835.22
2022-09-10T00:31:45.282Z,96832.03
2022-09-10T00:34:14.752Z,96831.56
2022-09-10T00:36:44.940Z,96832.69
2022-09-10T00:39:16.974Z,96838.03
2022-09-10T00:41:49.232Z,96842.47
2022-09-10T00:45:00.058Z,96845.88
2022-09-10T00:47:36.222Z,96840.38
2022-09-10T00:50:14.754Z,96842.22
2022-09-10T00:52:45.256Z,96824.84
2022-09-10T00:55:14.969Z,96827.22
2022-09-10T00:57:46.153Z,96830.78
2022-09-10T01:00:17.685Z,96838.19
2022-09-10T01:02:48.198Z,96836.13
2022-09-10T01:05:18.228Z,96830.31
2022-09-10T01:07:48.129Z,96823.50
2022-09-10T01:10:22.654Z,96827.16
2022-09-10T01:13:26.407Z,96826.91
2022-09-10T01:16:07.234Z,96823.38
2022-09-10T01:18:52.212Z,96820.03
2022-09-10T01:21:31.619Z,96820.91
2022-09-10T01:24:45.070Z,96819.03
2022-09-10T01:27:43.598Z,96817.91
2022-09-10T01:30:18.069Z,96823.09
2022-09-10T01:33:04.083Z,96831.94
2022-09-10T01:35:41.518Z,96836.88
2022-09-10T01:38:15.241Z,96834.19
2022-09-10T01:40:46.459Z,96829.72
2022-09-10T01:43:20.075Z,96826.84
2022-09-10T01:46:14.770Z,96819.78
2022-09-10T01:49:04.778Z,96825.63
2022-09-10T01:51:50.018Z,96816.38
2022-09-10T01:54:38.100Z,96816.19
2022-09-10T01:57:19.921Z,96821.06
2022-09-10T02:00:00.504Z,96810.34
2022-09-10T02:02:36.493Z,96811.84
2022-09-10T02:05:08.410Z,96818.03
2022-09-10T02:07:39.475Z,96817.81
2022-09-10T02:10:11.586Z,96818.38
2022-09-10T02:12:47.151Z,96805.97
2022-09-10T02:15:49.509Z,96807.69
2022-09-10T02:18:25.814Z,96808.47
2022-09-10T02:20:59.045Z,96808.94
2022-09-10T02:23:35.904Z,96808.25
2022-09-10T02:26:04.454Z,96812.50
2022-09-10T02:28:32.857Z,96812.16
2022-09-10T02:31:02.695Z,96820.16
2022-09-10T02:33:31.917Z,96813.19
2022-09-10T02:36:00.849Z,96815.34
2022-09-10T02:38:30.228Z,96812.50
2022-09-10T02:40:59.422Z,96805.88
2022-09-10T02:43:27.942Z,96798.09
2022-09-10T02:46:00.358Z,96803.34
2022-09-10T02:48:31.121Z,96803.81
2022-09-10T02:51:00.755Z,96796.00
2022-09-10T02:53:30.975Z,96793.81
2022-09-10T02:56:03.168Z,96788.22
2022-09-10T02:58:33.716Z,96790.63
2022-09-10T03:01:09.008Z,96793.94
2022-09-10T03:03:39.528Z,96804.38
2022-09-10T03:06:09.395Z,96805.31
2022-09-10T03:08:38.054Z,96800.38
2022-09-10T03:11:07.165Z,96802.31
2022-09-10T03:13:36.074Z,96785.97
2022-09-10T03:16:04.980Z,96792.03
2022-09-10T03:18:35.546Z,96798.09
2022-09-10T03:21:13.167Z,96796.59
2022-09-10T03:23:42.180Z,96796.03
2022-09-10T03:26:11.682Z,96792.72
2022-09-10T03:28:40.101Z,96792.38
2022-09-10T03:31:11.547Z,96794.22
2022-09-10T03:33:46.077Z,96789.31
2022-09-10T03:36:17.988Z,96788.72
2022-09-10T03:38:49.093Z,96785.59
2022-09-10T03:41:17.720Z,96789.69
2022-09-10T03:43:46.954Z,96793.69
2022-09-10T03:46:16.210Z,96796.84
2022-09-10T03:48:48.016Z,96782.59
2022-09-10T03:51:24.287Z,96787.91
2022-09-10T03:53:52.714Z,96784.63
2022-09-10T03:56:22.879Z,96787.16
2022-09-10T03:58:51.966Z,96792.22
2022-09-10T04:01:21.107Z,96789.84
2022-09-10T04:03:50.357Z,96795.03
2022-09-10T04:06:18.971Z,96798.44
2022-09-10T04:08:52.759Z,96796.72
2022-09-10T04:11:27.515Z,96796.16
2022-09-10T04:13:57.909Z,96795.47
2022-09-10T04:16:27.441Z,96788.94
2022-09-10T04:18:55.961Z,96788.72
2022-09-10T04:21:24.640Z,96798.56
2022-09-10T04:23:57.018Z,96795.09
2022-09-10T04:26:26.625Z,96800.59
2022-09-10T04:28:56.268Z,96798.53
2022-09-10T04:31:24.806Z,96806.16
2022-09-10T04:33:57.005Z,96798.53
2022-09-10T04:36:27.888Z,96804.00
2022-09-10T04:38:58.259Z,96801.50
2022-09-10T04:41:26.613Z,96807.44
2022-09-10T04:43:55.716Z,96805.84
2022-09-10T04:46:25.209Z,96809.75
2022-09-10T04:48:55.861Z,96818.56
2022-09-10T04:51:26.407Z,96816.53
2022-09-10T04:53:58.018Z,96820.28
2022-09-10T04:56:31.282Z,96821.53
2022-09-10T04:59:00.935Z,96822.22
2022-09-10T05:01:32.074Z,96824.38
2022-09-10T05:04:01.705Z,96830.00
2022-09-10T05:06:30.347Z,96831.94
2022-09-10T05:09:00.068Z,96831.38
2022-09-10T05:11:28.497Z,96834.56
2022-09-10T05:13:56.753Z,96834.09
2022-09-10T05:16:28.911Z,96835.00
2022-09-10T05:18:57.461Z,96837.66
2022-09-10T05:21:27.271Z,96841.19
2022-09-10T05:23:57.095Z,96846.91
2022-09-10T05:26:28.277Z,96834.31
2022-09-10T05:28:59.760Z,96844.72
2022-09-10T05:31:28.863Z,96836.72
2022-09-10T05:33:59.344Z,96836.41
2022-09-10T05:36:28.074Z,96831.81
2022-09-10T05:38:56.778Z,96838.47
2022-09-10T05:41:28.168Z,96826.50
2022-09-10T05:43:58.614Z,96831.19
2022-09-10T05:46:28.691Z,96840.75
2022-09-10T05:49:00.383Z,96833.00
2022-09-10T05:51:30.666Z,96837.06
2022-09-10T05:54:03.432Z,96834.34
2022-09-10T05:56:35.834Z,96831.47
2022-09-10T05:59:05.630Z,96818.47
2022-09-10T06:01:35.072Z,96815.84
2022-09-10T06:04:06.226Z,96825.22
2022-09-10T06:06:36.100Z,96822.81
2022-09-10T06:09:09.655Z,96823.28
2022-09-10T06:11:51.245Z,96834.25
2022-09-10T06:14:21.466Z,96842.59
2022-09-10T06:16:53.547Z,96832.88
2022-09-10T06:19:23.079Z,96849.78
2022-09-10T06:21:52.411Z,96845.31
2022-09-10T06:24:21.241Z,96850.91
2022-09-10T06:26:51.808Z,96853.31
2022-09-10T06:29:20.364Z,96858.44
2022-09-10T06:31:49.597Z,96861.25
2022-09-10T06:34:19.311Z,96864.31
2022-09-10T06:36:49.404Z,96863.38
2022-09-10T06:39:19.028Z,96859.72
2022-09-10T06:41:53.238Z,96870.09
2022-09-10T06:44:41.438Z,96866.91
2022-09-10T06:48:18.764Z,96867.72
2022-09-10T06:50:17.575Z,96861.59
2022-09-10T06:52:48.849Z,96866.41
2022-09-10T06:55:18.945Z,96869.25
2022-09-10T06:57:49.637Z,96874.84
2022-09-10T07:00:19.026Z,96872.84
2022-09-10T07:02:53.519Z,96874.06
2022-09-10T07:05:23.092Z,96871.66
2022-09-10T07:07:53.213Z,96874.56
2022-09-10T07:10:23.085Z,96872.31
2022-09-10T07:12:54.217Z,96872.44
2022-09-10T07:15:23.697Z,96878.03
2022-09-10T07:17:52.401Z,96874.81
2022-09-10T07:20:23.468Z,96880.44
2022-09-10T07:22:55.266Z,96875.16
2022-09-10T07:25:27.745Z,96877.16
2022-09-10T07:28:05.838Z,96880.53
2022-09-10T07:30:37.006Z,96889.53
2022-09-10T07:33:05.426Z,96880.50
2022-09-10T07:35:36.271Z,96886.94
2022-09-10T07:38:04.984Z,96892.06
2022-09-10T07:40:36.930Z,96887.03
2022-09-10T07:43:07.022Z,96895.28
2022-09-10T07:45:35.795Z,96897.38
2022-09-10T07:48:06.066Z,96892.09
2022-09-10T07:50:38.615Z,96894.97
2022-09-10T07:53:07.338Z,96895.16
2022-09-10T07:55:36.870Z,96898.84
2022-09-10T07:58:07.606Z,96901.78
2022-09-10T08:00:37.681Z,96902.47
2022-09-10T08:03:11.538Z,96906.91
2022-09-10T08:05:41.062Z,96917.44
2022-09-10T08:08:10.557Z,96901.97
2022-09-10T08:10:39.216Z,96913.25
2022-09-10T08:13:10.622Z,96920.03
2022-09-10T08:15:44.661Z,96918.66
2022-09-10T08:18:13.823Z,96913.66
2022-09-10T08:20:43.164Z,96921.19
2022-09-10T08:23:11.480Z,96921.75
2022-09-10T08:25:40.209Z,96917.78
2022-09-10T08:28:11.962Z,96928.00
2022-09-10T08:30:40.457Z,96933.06
2022-09-10T08:33:09.293Z,96931.63
2022-09-10T08:35:40.091Z,96930.22
2022-09-10T08:38:08.891Z,96936.69
2022-09-10T08:40:42.723Z,96943.13
2022-09-10T08:43:15.127Z,96939.34
2022-09-10T08:45:52.682Z,96936.34
2022-09-10T08:48:26.448Z,96942.47
2022-09-10T08:51:02.431Z,96932.53
2022-09-10T08:53:46.553Z,96942.72
2022-09-10T08:56:19.189Z,96946.06
2022-09-10T08:59:00.008Z,96951.72
2022-09-10T09:01:37.375Z,96938.44
2022-09-10T09:04:16.923Z,96943.69
2022-09-10T09:06:53.636Z,96945.84
2022-09-10T09:09:22.786Z,96945.56
2022-09-10T09:11:59.485Z,96945.69
2022-09-10T09:14:42.577Z,96951.19
2022-09-10T09:17:47.753Z,96952.88
2022-09-10T09:20:19.462Z,96946.59
2022-09-10T09:22:55.753Z,96951.81
2022-09-10T09:25:39.311Z,96950.31
2022-09-10T09:28:20.177Z,96943.75
2022-09-10T09:30:53.627Z,96942.41
2022-09-10T09:33:25.159Z,96944.09
2022-09-10T09:36:01.573Z,96939.38
2022-09-10T09:38:38.669Z,96947.47
2022-09-10T09:41:19.635Z,96942.72
2022-09-10T09:43:56.874Z,96941.22
2022-09-10T09:46:27.888Z,96935.19
2022-09-10T09:49:04.478Z,96945.47
2022-09-10T09:51:36.600Z,96935.78
2022-09-10T09:54:46.468Z,96939.41
2022-09-10T09:57:02.895Z,96935.63
2022-09-10T09:59:34.805Z,96934.09
2022-09-10T10:02:12.804Z,96926.47
2022-09-10T10:04:55.002Z,96927.00
2022-09-10T10:07:28.055Z,96920.81
2022-09-10T10:09:56.368Z,96924.25
2022-09-10T10:12:24.796Z,96918.63
2022-09-10T10:14:53.432Z,96914.81
2022-09-10T10:17:38.958Z,96919.03
2022-09-10T10:20:12.250Z,96915.31
2022-09-10T10:22:42.943Z,96910.53
2022-09-10T10:25:41.230Z,96909.56
2022-09-10T10:28:22.640Z,96908.63
2022-09-10T10:30:54.822Z,96908.00
2022-09-10T10:33:29.904Z,96894.53
2022-09-10T10:36:08.095Z,96905.34
2022-09-10T10:38:41.234Z,96898.09
2022-09-10T10:41:40.084Z,96898.09
2022-09-10T10:44:33.695Z,96893.56
2022-09-10T10:47:30.707Z,96892.00
2022-09-10T10:50:14.793Z,96882.00
2022-09-10T10:53:04.067Z,96876.06
2022-09-10T10:55:41.383Z,96884.91
2022-09-10T10:58:44.397Z,96884.38
2022-09-10T11:01:23.240Z,96873.44
2022-09-10T11:04:03.019Z,96869.16
2022-09-10T11:06:42.355Z,96870.81
2022-09-10T11:09:23.388Z,96880.06
2022-09-10T11:11:58.516Z,96870.63
2022-09-10T11:14:36.964Z,96871.09
2022-09-10T11:17:13.433Z,96868.97
2022-09-10T11:20:05.365Z,96858.53
2022-09-10T11:22:49.098Z,96863.25
2022-09-10T11:25:27.909Z,96857.16
2022-09-10T11:28:10.471Z,96861.69
2022-09-10T11:30:42.567Z,96861.44
2022-09-10T11:33:23.290Z,96851.19
2022-09-10T11:36:01.033Z,96848.91
2022-09-10T11:38:46.750Z,96851.19
2022-09-10T11:41:19.521Z,96849.59
2022-09-10T11:43:58.226Z,96843.94
2022-09-10T11:46:35.462Z,96859.09
2022-09-10T11:49:11.928Z,96862.19
2022-09-10T11:51:42.570Z,96848.88
2022-09-10T11:54:17.747Z,96850.22
2022-09-10T11:57:00.195Z,96848.50
2022-09-10T11:59:55.121Z,96861.78
2022-09-10T12:03:20.261Z,96851.22
2022-09-10T12:06:06.544Z,96846.50
2022-09-10T12:08:56.978Z,96852.22
2022-09-10T12:11:39.655Z,96848.91
2022-09-10T12:14:09.494Z,96840.06
2022-09-10T12:16:46.301Z,96839.84
2022-09-10T12:19:29.302Z,96840.28
2022-09-10T12:22:03.268Z,96838.31
2022-09-10T12:24:36.201Z,96839.66
2022-09-10T12:27:10.090Z,96836.97
2022-09-10T12:29:40.805Z,96826.31
2022-09-10T12:32:31.481Z,96826.69
2022-09-10T12:35:46.608Z,96819.66
2022-09-10T12:38:56.963Z,96815.88
2022-09-10T12:41:59.661Z,96817.09
2022-09-10T12:44:56.266Z,96816.22
2022-09-10T12:47:50.254Z,96814.06
2022-09-10T12:50:46.075Z,96818.44
2022-09-10T12:54:18.486Z,96815.88
2022-09-10T12:57:14.884Z,96810.34
2022-09-10T13:00:22.107Z,96817.34
2022-09-10T13:02:58.325Z,96825.94
2022-09-10T13:05:33.066Z,96816.63
2022-09-10T13:08:14.147Z,96825.03
2022-09-10T13:10:47.028Z,96844.97
2022-09-10T13:13:36.576Z,96848.81
2022-09-10T13:16:13.136Z,96869.25
2022-09-10T13:18:41.916Z,96876.13
2022-09-10T13:21:48.139Z,96869.66
2022-09-10T13:24:56.090Z,96865.13
2022-09-10T13:27:39.877Z,96876.97
2022-09-10T13:30:19.168Z,96876.66
2022-09-10T13:32:55.236Z,96883.84
2022-09-10T13:36:15.114Z,96877.75
2022-09-10T13:39:16.075Z,96882.13
2022-09-10T13:42:18.316Z,96882.31
2022-09-10T13:45:08.798Z,96867.00
2022-09-10T13:47:46.202Z,96869.75
2022-09-10T13:50:22.878Z,96862.16
2022-09-10T13:52:57.181Z,96858.03
2022-09-10T13:55:29.777Z,96861.41
2022-09-10T13:58:05.663Z,96864.94
2022-09-10T14:00:43.214Z,96863.25
2022-09-10T14:03:23.227Z,96858.72
2022-09-10T14:05:57.733Z,96856.13
2022-09-10T14:08:31.461Z,96856.94
2022-09-10T14:11:07.305Z,96850.38
2022-09-10T14:13:41.113Z,96852.22
2022-09-10T14:16:18.111Z,96839.53
2022-09-10T14:18:52.346Z,96831.44
2022-09-10T14:21:26.983Z,96840.09
2022-09-10T14:23:57.212Z,96836.44
2022-09-10T14:26:28.225Z,96826.09
2022-09-10T14:29:01.083Z,96828.81
2022-09-10T14:31:37.268Z,96824.47
2022-09-10T14:34:27.430Z,96821.41
2022-09-10T14:36:58.784Z,96815.44
2022-09-10T14:39:27.464Z,96813.63
2022-09-10T14:42:27.316Z,96813.22
2022-09-10T14:44:55.831Z,96806.84
2022-09-10T14:47:35.833Z,96818.41
2022-09-10T14:50:32.022Z,96828.09
2022-09-10T14:53:01.900Z,96813.66
2022-09-10T14:55:33.996Z,96827.34
2022-09-10T14:58:02.229Z,96818.75
2022-09-10T15:00:31.112Z,96817.59
2022-09-10T15:02:59.969Z,96826.44
2022-09-10T15:05:29.695Z,96829.84
2022-09-10T15:07:58.003Z,96833.25
2022-09-10T15:10:27.727Z,96832.75
2022-09-10T15:12:56.625Z,96831.22
2022-09-10T15:15:26.860Z,96832.28
2022-09-10T15:17:55.662Z,96834.13
2022-09-10T15:20:27.848Z,96826.72
2022-09-10T15:22:56.363Z,96824.25
2022-09-10T15:25:38.630Z,96822.81
2022-09-10T15:28:08.001Z,96837.97
2022-09-10T15:30:36.955Z,96836.44
2022-09-10T15:33:05.834Z,96835.59
2022-09-10T15:35:34.203Z,96834.00
2022-09-10T15:38:02.547Z,96829.03
2022-09-10T15:40:32.298Z,96824.19
2022-09-10T15:43:00.862Z,96824.56
2022-09-10T15:45:29.373Z,96821.31
2022-09-10T15:47:57.633Z,96817.81
2022-09-10T15:50:25.882Z,96819.47
2022-09-10T15:52:54.488Z,96818.06
2022-09-10T15:55:22.783Z,96810.63
2022-09-10T15:57:53.161Z,96817.00
2022-09-10T16:00:22.068Z,96809.72
2022-09-10T16:02:54.467Z,96809.00
2022-09-10T16:05:22.944Z,96809.16
2022-09-10T16:07:51.231Z,96807.78
2022-09-10T16:10:19.537Z,96806.44
2022-09-10T16:12:47.778Z,96806.41
2022-09-10T16:15:17.558Z,96812.75
2022-09-10T16:17:45.793Z,96820.72
2022-09-10T16:20:14.017Z,96824.19
2022-09-10T16:22:42.240Z,96824.69
2022-09-10T16:25:12.141Z,96821.94
2022-09-10T16:27:43.176Z,96825.72
2022-09-10T16:30:13.787Z,96826.41
2022-09-10T16:32:43.356Z,96826.41
2022-09-10T16:35:11.953Z,96827.84
2022-09-10T16:37:40.655Z,96824.72
2022-09-10T16:40:11.196Z,96827.28
2022-09-10T16:42:39.474Z,96828.94
2022-09-10T16:45:09.431Z,96838.16
2022-09-10T16:47:38.130Z,96829.31
2022-09-10T16:50:08.957Z,96820.19
2022-09-10T16:52:37.569Z,96832.03
2022-09-10T16:55:07.068Z,96830.34
2022-09-10T16:57:35.589Z,96825.56
2022-09-10T17:00:06.293Z,96826.34
2022-09-10T17:02:35.232Z,96828.56
2022-09-10T17:05:03.512Z,96832.06
2022-09-10T17:07:33.293Z,96823.00
2022-09-10T17:10:01.538Z,96830.47
2022-09-10T17:12:29.821Z,96827.28
2022-09-10T17:14:57.980Z,96836.78
2022-09-10T17:17:26.169Z,96830.81
2022-09-10T17:19:54.456Z,96833.75
2022-09-10T17:22:22.724Z,96840.44
2022-09-10T17:24:53.932Z,96834.50
2022-09-10T17:27:25.563Z,96836.53
2022-09-10T17:29:54.038Z,96836.88
2022-09-10T17:32:22.404Z,96834.91
2022-09-10T17:34:51.627Z,96844.28
2022-09-10T17:37:20.109Z,96840.78
2022-09-10T17:39:48.469Z,96838.41
2022-09-10T17:42:18.241Z,96846.84
2022-09-10T17:44:47.175Z,96849.06
2022-09-10T17:47:15.394Z,96863.16
2022-09-10T17:49:44.278Z,96863.53
2022-09-10T17:52:14.570Z,96867.66
2022-09-10T17:54:42.919Z,96876.44
2022-09-10T17:57:11.528Z,96873.59
2022-09-10T17:59:41.118Z,96880.81
2022-09-10T18:02:14.142Z,96872.22
2022-09-10T18:04:42.655Z,96887.34
2022-09-10T18:07:11.953Z,96886.16
2022-09-10T18:09:40.151Z,96880.38
2022-09-10T18:12:08.749Z,96889.44
2022-09-10T18:14:38.490Z,96886.22
2022-09-10T18:17:08.172Z,96880.72
2022-09-10T18:19:36.529Z,96889.72
2022-09-10T18:22:05.231Z,96893.16
2022-09-10T18:24:33.625Z,96886.06
2022-09-10T18:27:04.847Z,96898.19
2022-09-10T18:29:33.498Z,96895.84
2022-09-10T18:32:02.403Z,96897.09
2022-09-10T18:34:32.542Z,96903.47
2022-09-10T18:37:03.044Z,96910.75
2022-09-10T18:39:33.848Z,96912.03
2022-09-10T18:42:02.796Z,96913.97
2022-09-10T18:44:34.241Z,96919.38
2022-09-10T18:47:02.973Z,96917.09
2022-09-10T18:49:33.532Z,96922.91
2022-09-10T18:52:01.731Z,96918.28
2022-09-10T18:54:30.109Z,96914.53
2022-09-10T18:56:58.702Z,96925.53
2022-09-10T18:59:28.039Z,96924.25
2022-09-10T19:01:56.924Z,96924.88
2022-09-10T19:04:28.903Z,96918.41
2022-09-10T19:06:59.510Z,96916.84
2022-09-10T19:09:31.500Z,96924.50
2022-09-10T19:12:01.372Z,96922.59
2022-09-10T19:14:32.269Z,96922.13
2022-09-10T19:17:02.707Z,96923.94
2022-09-10T19:19:33.300Z,96919.41
2022-09-10T19:22:07.240Z,96917.53
2022-09-10T19:24:54.870Z,96916.84
2022-09-10T19:27:24.042Z,96913.91
2022-09-10T19:29:53.438Z,96914.94
2022-09-10T19:32:21.960Z,96921.31
2022-09-10T19:34:51.328Z,96918.56
2022-09-10T19:37:21.152Z,96919.38
2022-09-10T19:39:49.716Z,96917.53
2022-09-10T19:42:18.717Z,96914.38
2022-09-10T19:44:48.165Z,96926.31
2022-09-10T19:47:16.439Z,96921.72
2022-09-10T19:49:44.724Z,96912.28
2022-09-10T19:52:13.017Z,96921.56
2022-09-10T19:54:42.945Z,96912.19
2022-09-10T19:57:11.759Z,96929.47
2022-09-10T19:59:40.161Z,96919.84
2022-09-10T20:02:10.264Z,96925.44
2022-09-10T20:04:38.719Z,96921.56
2022-09-10T20:07:07.394Z,96919.69
2022-09-10T20:09:39.849Z,96915.28
2022-09-10T20:12:10.789Z,96919.59
2022-09-10T20:14:39.121Z,96925.91
2022-09-10T20:17:07.324Z,96929.66
2022-09-10T20:19:35.675Z,96931.16
2022-09-10T20:22:03.911Z,96932.56
2022-09-10T20:24:32.331Z,96931.28
2022-09-10T20:27:00.876Z,96935.06
2022-09-10T20:29:32.938Z,96930.47
2022-09-10T20:32:01.426Z,96935.03
2022-09-10T20:34:29.807Z,96932.94
2022-09-10T20:36:57.971Z,96923.63
2022-09-10T20:39:26.164Z,96928.94
2022-09-10T20:41:54.412Z,96928.72
2022-09-10T20:44:23.014Z,96931.03
2022-09-10T20:46:52.563Z,96926.56
2022-09-10T20:49:21.350Z,96931.28
2022-09-10T20:51:49.723Z,96934.91
2022-09-10T20:54:19.561Z,96932.53
2022-09-10T20:56:48.406Z,96935.47
2022-09-10T20:59:19.243Z,96934.00
2022-09-10T21:01:50.886Z,96930.91
2022-09-10T21:04:21.906Z,96926.03
2022-09-10T21:06:50.138Z,96930.13
2022-09-10T21:09:18.600Z,96939.84
2022-09-10T21:11:47.170Z,96945.44
2022-09-10T21:14:15.551Z,96945.78
2022-09-10T21:16:47.225Z,96939.34
2022-09-10T21:19:17.805Z,96938.19
2022-09-10T21:21:48.806Z,96945.44
2022-09-10T21:24:22.500Z,96947.50
2022-09-10T21:26:53.603Z,96942.00
2022-09-10T21:29:23.055Z,96938.28
2022-09-10T21:31:53.277Z,96939.66
2022-09-10T21:34:22.011Z,96952.69
2022-09-10T21:36:51.769Z,96942.75
2022-09-10T21:39:20.505Z,96937.59
2022-09-10T21:41:51.250Z,96942.97
2022-09-10T21:44:22.097Z,96943.56
2022-09-10T21:46:51.757Z,96943.09
2022-09-10T21:49:21.244Z,96937.16
2022-09-10T21:51:51.238Z,96939.22
2022-09-10T21:54:24.220Z,96937.25
2022-09-10T21:56:53.210Z,96949.75
2022-09-10T21:59:22.186Z,96939.22
2022-09-10T22:01:50.712Z,96935.22
2022-09-10T22:04:22.749Z,96942.88
2022-09-10T22:06:54.383Z,96939.47
2022-09-10T22:09:24.255Z,96943.34
2022-09-10T22:11:54.507Z,96940.50
2022-09-10T22:14:25.325Z,96947.13
2022-09-10T22:16:55.124Z,96947.56
2022-09-10T22:19:27.285Z,96940.50
2022-09-10T22:21:57.429Z,96944.47
2022-09-10T22:24:26.227Z,96943.91
2022-09-10T22:26:54.636Z,96943.09
2022-09-10T22:29:23.398Z,96945.59
2022-09-10T22:31:52.346Z,96946.75
2022-09-10T22:34:20.810Z,96944.09
2022-09-10T22:36:50.355Z,96947.44
2022-09-10T22:39:21.848Z,96945.84
2022-09-10T22:41:51.660Z,96947.66
2022-09-10T22:44:20.552Z,96943.16
2022-09-10T22:46:49.091Z,96940.19
2022-09-10T22:49:17.994Z,96945.09
2022-09-10T22:51:46.631Z,96948.53
2022-09-10T22:54:16.588Z,96934.84
2022-09-10T22:56:46.207Z,96941.81
2022-09-10T22:59:16.104Z,96941.25
2022-09-10T23:01:47.334Z,96936.91
2022-09-10T23:04:16.346Z,96944.03
2022-09-10T23:06:44.774Z,96938.72
2022-09-10T23:09:15.925Z,96941.81
2022-09-10T23:11:46.706Z,96937.00
2022-09-10T23:14:19.227Z,96934.81
2022-09-10T23:16:49.926Z,96937.09
2022-09-10T23:19:21.479Z,96938.72
2022-09-10T23:21:52.174Z,96937.00
2022-09-10T23:24:24.203Z,96937.81
2022-09-10T23:26:54.900Z,96940.09
2022-09-10T23:29:24.094Z,96947.66
2022-09-10T23:31:54.283Z,96945.25
2022-09-10T23:34:23.834Z,96951.69
2022-09-10T23:36:53.519Z,96947.09
2022-09-10T23:39:23.723Z,96950.16
2022-09-10T23:41:56.720Z,96941.13
2022-09-10T23:44:25.159Z,96946.28
2022-09-10T23:46:54.399Z,96941.38
2022-09-10T23:49:23.960Z,96944.81
2022-09-10T23:51:52.484Z,96947.41
2022-09-10T23:54:20.708Z,96946.38
2022-09-10T23:56:49.277Z,96949.22
2022-09-10T23:59:19.501Z,96949.22
